createdAt,value
2019-02-22T00:00:38.590Z,1.34
2019-02-22T00:01:12.632Z,1.33
2019-02-22T00:01:45.790Z,1.31
2019-02-22T00:02:18.991Z,1.30
2019-02-22T00:02:50.235Z,1.28
2019-02-22T00:03:21.556Z,1.29
2019-02-22T00:03:52.832Z,1.28
2019-02-22T00:04:24.210Z,1.27
2019-02-22T00:04:55.478Z,1.27
2019-02-22T00:05:26.778Z,1.26
2019-02-22T00:05:58.024Z,1.23
2019-02-22T00:06:31.241Z,1.22
2019-02-22T00:07:02.466Z,1.20
2019-02-22T00:07:33.778Z,1.17
2019-02-22T00:08:05.020Z,1.18
2019-02-22T00:08:36.337Z,1.18
2019-02-22T00:09:07.541Z,1.16
2019-02-22T00:09:48.851Z,1.12
2019-02-22T00:10:12.195Z,1.13
2019-02-22T00:10:43.506Z,1.13
2019-02-22T00:11:14.747Z,1.11
2019-02-22T00:11:46.132Z,1.05
2019-02-22T00:12:17.356Z,1.05
2019-02-22T00:12:48.688Z,1.04
2019-02-22T00:13:19.935Z,1.02
2019-02-22T00:13:51.244Z,0.93
2019-02-22T00:14:22.508Z,0.93
2019-02-22T00:14:53.833Z,0.93
2019-02-22T00:15:25.077Z,0.93
2019-02-22T00:15:56.399Z,0.89
2019-02-22T00:16:27.629Z,0.89
2019-02-22T00:16:59.034Z,0.87
2019-02-22T00:17:30.280Z,0.86
2019-02-22T00:18:01.601Z,0.84
2019-02-22T00:18:32.823Z,0.84
2019-02-22T00:19:04.133Z,0.83
2019-02-22T00:19:35.371Z,0.81
2019-02-22T00:20:06.863Z,0.81
2019-02-22T00:20:38.226Z,0.82
2019-02-22T00:21:09.533Z,0.82
2019-02-22T00:21:40.815Z,0.80
2019-02-22T00:22:12.227Z,0.80
2019-02-22T00:22:44.529Z,0.75
2019-02-22T00:23:15.860Z,0.76
2019-02-22T00:23:47.114Z,0.78
2019-02-22T00:24:18.435Z,0.77
2019-02-22T00:24:49.673Z,0.75
2019-02-22T00:25:22.019Z,0.74
2019-02-22T00:25:53.252Z,0.72
2019-02-22T00:26:24.598Z,0.71
2019-02-22T00:26:55.855Z,0.72
2019-02-22T00:27:27.182Z,0.72
2019-02-22T00:27:58.514Z,0.73
2019-02-22T00:28:29.870Z,0.72
2019-02-22T00:29:01.146Z,0.71
2019-02-22T00:29:32.433Z,0.71
2019-02-22T00:30:05.917Z,0.71
2019-02-22T00:30:37.206Z,0.68
2019-02-22T00:31:08.504Z,0.64
2019-02-22T00:31:39.782Z,0.64
2019-02-22T00:32:11.024Z,0.62
2019-02-22T00:32:42.710Z,0.60
2019-02-22T00:33:14.082Z,0.59
2019-02-22T00:33:45.366Z,0.55
2019-02-22T00:34:16.814Z,0.55
2019-02-22T00:34:48.172Z,0.53
2019-02-22T00:35:19.514Z,0.52
2019-02-22T00:35:50.826Z,0.52
2019-02-22T00:36:22.209Z,0.52
2019-02-22T00:36:53.510Z,0.52
2019-02-22T00:37:24.873Z,0.51
2019-02-22T00:37:56.191Z,0.50
2019-02-22T00:38:27.430Z,0.49
2019-02-22T00:38:58.703Z,0.49
2019-02-22T00:39:29.983Z,0.47
2019-02-22T00:40:01.453Z,0.47
2019-02-22T00:40:32.861Z,0.47
2019-02-22T00:41:04.095Z,0.47
2019-02-22T00:41:35.426Z,0.46
2019-02-22T00:42:06.669Z,0.44
2019-02-22T00:42:37.972Z,0.43
2019-02-22T00:43:09.251Z,0.43
2019-02-22T00:43:40.544Z,0.42
2019-02-22T00:44:11.821Z,0.43
2019-02-22T00:44:43.332Z,0.42
2019-02-22T00:45:14.602Z,0.42
2019-02-22T00:45:45.874Z,0.42
2019-02-22T00:46:17.159Z,0.40
2019-02-22T00:46:48.437Z,0.39
2019-02-22T00:47:19.734Z,0.35
2019-02-22T00:47:50.997Z,0.34
2019-02-22T00:48:22.254Z,0.35
2019-02-22T00:48:53.530Z,0.26
2019-02-22T00:49:24.809Z,0.26
2019-02-22T00:49:56.112Z,0.35
2019-02-22T00:50:27.383Z,0.36
2019-02-22T00:50:58.663Z,0.36
2019-02-22T00:51:29.934Z,0.36
2019-02-22T00:52:01.201Z,0.33
2019-02-22T00:52:32.470Z,0.32
2019-02-22T00:53:03.892Z,0.31
2019-02-22T00:53:35.197Z,0.32
2019-02-22T00:54:06.470Z,0.32
2019-02-22T00:54:37.758Z,0.30
2019-02-22T00:55:09.061Z,0.29
2019-02-22T00:55:40.430Z,0.29
2019-02-22T00:56:11.705Z,0.28
2019-02-22T00:56:43.210Z,0.30
2019-02-22T00:57:14.492Z,0.30
2019-02-22T00:57:45.785Z,0.29
2019-02-22T00:58:17.061Z,0.27
2019-02-22T00:58:48.347Z,0.27
2019-02-22T00:59:19.679Z,0.16
2019-02-22T00:59:50.943Z,0.16
2019-02-22T01:00:22.252Z,0.26
2019-02-22T01:00:53.491Z,0.25
2019-02-22T01:01:25.807Z,0.26
2019-02-22T01:01:58.033Z,0.25
2019-02-22T01:02:29.284Z,0.24
2019-02-22T01:03:01.543Z,0.25
2019-02-22T01:03:32.847Z,0.26
2019-02-22T01:04:04.111Z,0.25
2019-02-22T01:04:35.395Z,0.25
2019-02-22T01:05:06.621Z,0.23
2019-02-22T01:05:38.051Z,0.26
2019-02-22T01:06:09.303Z,0.27
2019-02-22T01:06:40.619Z,0.28
2019-02-22T01:07:11.906Z,0.27
2019-02-22T01:07:43.415Z,0.29
2019-02-22T01:08:14.671Z,0.31
2019-02-22T01:08:46.223Z,0.32
2019-02-22T01:09:17.468Z,0.33
2019-02-22T01:09:48.768Z,0.34
2019-02-22T01:10:30.422Z,0.34
2019-02-22T01:10:53.241Z,0.35
2019-02-22T01:11:24.486Z,0.37
2019-02-22T01:11:55.802Z,0.37
2019-02-22T01:12:27.054Z,0.35
2019-02-22T01:12:58.356Z,0.34
2019-02-22T01:13:29.704Z,0.34
2019-02-22T01:14:01.024Z,0.36
2019-02-22T01:14:32.404Z,0.35
2019-02-22T01:15:05.150Z,0.35
2019-02-22T01:15:36.603Z,0.35
2019-02-22T01:16:07.976Z,0.35
2019-02-22T01:16:40.310Z,0.35
2019-02-22T01:17:11.658Z,0.37
2019-02-22T01:17:43.239Z,0.38
2019-02-22T01:18:14.603Z,0.38
2019-02-22T01:18:46.006Z,0.38
2019-02-22T01:19:17.439Z,0.37
2019-02-22T01:19:48.769Z,0.36
2019-02-22T01:20:20.217Z,0.36
2019-02-22T01:20:54.472Z,0.36
2019-02-22T01:21:24.705Z,0.36
2019-02-22T01:21:56.020Z,0.38
2019-02-22T01:22:27.266Z,0.37
2019-02-22T01:22:58.601Z,0.35
2019-02-22T01:23:29.872Z,0.35
2019-02-22T01:24:01.194Z,0.34
2019-02-22T01:24:32.501Z,0.34
2019-02-22T01:25:04.077Z,0.33
2019-02-22T01:25:35.491Z,0.35
2019-02-22T01:26:06.827Z,0.33
2019-02-22T01:26:38.137Z,0.32
2019-02-22T01:27:09.538Z,0.33
2019-02-22T01:27:40.911Z,0.34
2019-02-22T01:28:15.014Z,0.33
2019-02-22T01:28:46.512Z,0.33
2019-02-22T01:29:17.900Z,0.35
2019-02-22T01:29:49.207Z,0.35
2019-02-22T01:30:20.433Z,0.33
2019-02-22T01:30:51.748Z,0.34
2019-02-22T01:31:22.983Z,0.36
2019-02-22T01:31:54.314Z,0.35
2019-02-22T01:32:25.568Z,0.34
2019-02-22T01:32:56.882Z,0.34
2019-02-22T01:33:28.112Z,0.33
2019-02-22T01:33:59.438Z,0.36
2019-02-22T01:34:30.686Z,0.36
2019-02-22T01:35:02.006Z,0.33
2019-02-22T01:35:34.400Z,0.29
2019-02-22T01:36:05.822Z,0.31
2019-02-22T01:36:37.156Z,0.31
2019-02-22T01:37:08.504Z,0.31
2019-02-22T01:37:39.769Z,0.31
2019-02-22T01:38:11.128Z,0.32
2019-02-22T01:38:43.355Z,0.32
2019-02-22T01:39:14.778Z,0.31
2019-02-22T01:39:46.069Z,0.29
2019-02-22T01:40:17.449Z,0.29
2019-02-22T01:40:48.788Z,0.28
2019-02-22T01:41:20.240Z,0.27
2019-02-22T01:41:51.583Z,0.23
2019-02-22T01:42:23.927Z,0.21
2019-02-22T01:42:55.380Z,0.20
2019-02-22T01:43:26.698Z,0.20
2019-02-22T01:43:58.051Z,0.17
2019-02-22T01:44:29.391Z,0.16
2019-02-22T01:45:00.695Z,0.14
2019-02-22T01:45:31.923Z,0.13
2019-02-22T01:46:03.387Z,0.11
2019-02-22T01:46:34.601Z,0.10
2019-02-22T01:47:05.899Z,0.09
2019-02-22T01:47:37.159Z,0.10
2019-02-22T01:48:08.472Z,0.08
2019-02-22T01:48:39.733Z,0.05
2019-02-22T01:49:11.022Z,0.05
2019-02-22T01:49:42.265Z,0.04
2019-02-22T01:50:20.580Z,0.02
2019-02-22T01:50:51.901Z,0.00
2019-02-22T01:51:23.304Z,0.00
2019-02-22T01:51:54.556Z,0.01
2019-02-22T01:52:25.872Z,-0.04
2019-02-22T01:52:57.111Z,-0.01
2019-02-22T01:53:28.431Z,0.00
2019-02-22T01:53:59.654Z,0.00
2019-02-22T01:54:31.976Z,-0.03
2019-02-22T01:55:03.265Z,-0.03
2019-02-22T01:55:34.775Z,-0.07
2019-02-22T01:56:06.222Z,-0.07
2019-02-22T01:56:37.548Z,-0.09
2019-02-22T01:57:08.959Z,-0.07
2019-02-22T01:57:40.299Z,-0.08
2019-02-22T01:58:11.745Z,-0.08
2019-02-22T01:58:48.724Z,-0.12
2019-02-22T01:59:16.481Z,-0.14
2019-02-22T01:59:47.808Z,-0.15
2019-02-22T02:00:19.147Z,-0.14
2019-02-22T02:00:50.468Z,-0.17
2019-02-22T02:01:21.780Z,-0.16
2019-02-22T02:01:53.113Z,-0.17
2019-02-22T02:02:24.420Z,-0.17
2019-02-22T02:02:55.677Z,-0.16
2019-02-22T02:03:26.989Z,-0.17
2019-02-22T02:03:58.237Z,-0.18
2019-02-22T02:04:29.691Z,-0.18
2019-02-22T02:05:00.987Z,-0.18
2019-02-22T02:05:32.337Z,-0.18
2019-02-22T02:06:03.707Z,-0.17
2019-02-22T02:06:35.042Z,-0.16
2019-02-22T02:07:06.371Z,-0.16
2019-02-22T02:07:38.738Z,-0.13
2019-02-22T02:08:10.183Z,-0.14
2019-02-22T02:08:41.505Z,-0.16
2019-02-22T02:09:12.864Z,-0.18
2019-02-22T02:09:44.251Z,-0.18
2019-02-22T02:10:15.649Z,-0.19
2019-02-22T02:10:53.893Z,-0.17
2019-02-22T02:11:20.076Z,-0.19
2019-02-22T02:11:51.309Z,-0.18
2019-02-22T02:12:22.616Z,-0.20
2019-02-22T02:12:53.838Z,-0.20
2019-02-22T02:13:25.144Z,-0.21
2019-02-22T02:13:56.427Z,-0.22
2019-02-22T02:14:27.734Z,-0.21
2019-02-22T02:14:58.998Z,-0.25
2019-02-22T02:15:30.310Z,-0.25
2019-02-22T02:16:01.548Z,-0.26
2019-02-22T02:16:33.866Z,-0.27
2019-02-22T02:17:05.110Z,-0.30
2019-02-22T02:17:36.471Z,-0.31
2019-02-22T02:18:07.776Z,-0.30
2019-02-22T02:18:39.136Z,-0.31
2019-02-22T02:19:10.358Z,-0.31
2019-02-22T02:19:42.776Z,-0.32
2019-02-22T02:20:14.166Z,-0.33
2019-02-22T02:20:45.980Z,-0.33
2019-02-22T02:21:17.391Z,-0.33
2019-02-22T02:21:48.845Z,-0.34
2019-02-22T02:22:20.217Z,-0.36
2019-02-22T02:22:51.574Z,-0.36
2019-02-22T02:23:22.917Z,-0.39
2019-02-22T02:23:54.261Z,-0.39
2019-02-22T02:24:25.687Z,-0.40
2019-02-22T02:24:57.007Z,-0.38
2019-02-22T02:25:28.331Z,-0.39
2019-02-22T02:25:59.571Z,-0.38
2019-02-22T02:26:30.879Z,-0.39
2019-02-22T02:27:02.113Z,-0.40
2019-02-22T02:27:33.437Z,-0.42
2019-02-22T02:28:04.667Z,-0.42
2019-02-22T02:28:35.985Z,-0.41
2019-02-22T02:29:07.248Z,-0.40
2019-02-22T02:29:38.568Z,-0.43
2019-02-22T02:30:09.830Z,-0.43
2019-02-22T02:30:41.208Z,-0.43
2019-02-22T02:31:12.740Z,-0.43
2019-02-22T02:31:44.145Z,-0.47
2019-02-22T02:32:15.368Z,-0.46
2019-02-22T02:32:46.677Z,-0.48
2019-02-22T02:33:18.081Z,-0.51
2019-02-22T02:33:49.459Z,-0.51
2019-02-22T02:34:20.749Z,-0.51
2019-02-22T02:34:52.102Z,-0.51
2019-02-22T02:35:23.409Z,-0.50
2019-02-22T02:35:54.638Z,-0.50
2019-02-22T02:36:26.050Z,-0.51
2019-02-22T02:36:57.294Z,-0.53
2019-02-22T02:37:28.600Z,-0.54
2019-02-22T02:37:59.873Z,-0.55
2019-02-22T02:38:31.199Z,-0.57
2019-02-22T02:39:03.847Z,-0.58
2019-02-22T02:39:37.097Z,-0.59
2019-02-22T02:40:08.397Z,-0.60
2019-02-22T02:40:39.635Z,-0.59
2019-02-22T02:41:11.589Z,-0.61
2019-02-22T02:41:44.389Z,-0.60
2019-02-22T02:42:15.613Z,-0.60
2019-02-22T02:42:46.888Z,-0.62
2019-02-22T02:43:18.091Z,-0.61
2019-02-22T02:43:49.337Z,-0.61
2019-02-22T02:44:20.510Z,-0.62
2019-02-22T02:44:51.799Z,-0.62
2019-02-22T02:45:22.995Z,-0.63
2019-02-22T02:45:54.301Z,-0.65
2019-02-22T02:46:25.565Z,-0.64
2019-02-22T02:46:56.821Z,-0.65
2019-02-22T02:47:28.264Z,-0.61
2019-02-22T02:47:59.713Z,-0.63
2019-02-22T02:48:31.078Z,-0.63
2019-02-22T02:49:02.469Z,-0.62
2019-02-22T02:49:33.778Z,-0.62
2019-02-22T02:50:06.591Z,-0.63
2019-02-22T02:50:37.911Z,-0.63
2019-02-22T02:51:09.259Z,-0.63
2019-02-22T02:51:40.523Z,-0.67
2019-02-22T02:52:11.752Z,-0.67
2019-02-22T02:52:43.558Z,-0.67
2019-02-22T02:53:15.849Z,-0.68
2019-02-22T02:53:47.046Z,-0.68
2019-02-22T02:54:18.284Z,-0.71
2019-02-22T02:54:49.524Z,-0.74
2019-02-22T02:55:28.351Z,-0.78
2019-02-22T02:55:59.688Z,-0.76
2019-02-22T02:56:30.925Z,-0.78
2019-02-22T02:57:02.163Z,-0.79
2019-02-22T02:57:33.528Z,-0.82
2019-02-22T02:58:04.915Z,-0.83
2019-02-22T02:58:36.306Z,-0.82
2019-02-22T02:59:07.689Z,-0.83
2019-02-22T02:59:39.032Z,-0.82
2019-02-22T03:00:10.489Z,-0.82
2019-02-22T03:00:41.882Z,-0.82
2019-02-22T03:01:14.223Z,-0.82
2019-02-22T03:01:45.851Z,-0.82
2019-02-22T03:02:18.915Z,-0.82
2019-02-22T03:02:50.185Z,-0.83
2019-02-22T03:03:21.468Z,-0.82
2019-02-22T03:03:52.823Z,-0.83
2019-02-22T03:04:24.099Z,-0.84
2019-02-22T03:04:55.397Z,-0.84
2019-02-22T03:05:28.518Z,-0.84
2019-02-22T03:06:01.637Z,-0.85
2019-02-22T03:06:46.492Z,-0.87
2019-02-22T03:07:35.962Z,-0.87
2019-02-22T03:08:07.243Z,-0.88
2019-02-22T03:08:38.581Z,-0.89
2019-02-22T03:09:09.830Z,-0.90
2019-02-22T03:09:41.729Z,-0.89
2019-02-22T03:10:12.953Z,-0.89
2019-02-22T03:10:44.379Z,-0.89
2019-02-22T03:11:20.585Z,-0.89
2019-02-22T03:11:49.189Z,-0.90
2019-02-22T03:12:20.567Z,-0.90
2019-02-22T03:12:51.931Z,-0.91
2019-02-22T03:13:23.304Z,-0.90
2019-02-22T03:13:54.755Z,-0.92
2019-02-22T03:14:26.153Z,-0.92
2019-02-22T03:14:57.478Z,-0.93
2019-02-22T03:15:28.891Z,-0.94
2019-02-22T03:16:00.171Z,-0.94
2019-02-22T03:16:31.375Z,-0.94
2019-02-22T03:17:02.643Z,-0.94
2019-02-22T03:17:34.987Z,-0.94
2019-02-22T03:18:06.407Z,-0.95
2019-02-22T03:18:37.725Z,-0.95
2019-02-22T03:19:09.102Z,-0.94
2019-02-22T03:19:40.449Z,-0.95
2019-02-22T03:20:11.891Z,-0.94
2019-02-22T03:20:44.428Z,-0.93
2019-02-22T03:21:16.898Z,-0.95
2019-02-22T03:21:48.273Z,-0.96
2019-02-22T03:22:19.716Z,-0.95
2019-02-22T03:22:51.245Z,-0.96
2019-02-22T03:23:22.656Z,-0.97
2019-02-22T03:23:53.956Z,-0.98
2019-02-22T03:24:25.441Z,-0.98
2019-02-22T03:24:56.721Z,-1.01
2019-02-22T03:25:28.112Z,-1.03
2019-02-22T03:25:59.387Z,-1.03
2019-02-22T03:26:30.747Z,-1.03
2019-02-22T03:27:02.166Z,-1.04
2019-02-22T03:27:33.562Z,-1.02
2019-02-22T03:28:04.951Z,-1.01
2019-02-22T03:28:36.425Z,-1.03
2019-02-22T03:29:07.707Z,-1.01
2019-02-22T03:29:39.019Z,-1.02
2019-02-22T03:30:10.310Z,-1.02
2019-02-22T03:30:41.914Z,-1.03
2019-02-22T03:31:13.221Z,-1.02
2019-02-22T03:31:44.583Z,-1.02
2019-02-22T03:32:15.877Z,-1.01
2019-02-22T03:32:47.276Z,-1.02
2019-02-22T03:33:18.658Z,-1.03
2019-02-22T03:33:50.103Z,-1.03
2019-02-22T03:34:21.427Z,-1.04
2019-02-22T03:34:52.674Z,-1.04
2019-02-22T03:35:23.874Z,-1.04
2019-02-22T03:35:55.200Z,-1.04
2019-02-22T03:36:26.512Z,-1.06
2019-02-22T03:36:57.898Z,-1.08
2019-02-22T03:37:29.203Z,-1.10
2019-02-22T03:38:00.605Z,-1.12
2019-02-22T03:38:32.152Z,-1.11
2019-02-22T03:39:04.904Z,-1.11
2019-02-22T03:39:38.283Z,-1.12
2019-02-22T03:40:09.811Z,-1.12
2019-02-22T03:40:41.472Z,-1.13
2019-02-22T03:41:13.116Z,-1.15
2019-02-22T03:41:44.701Z,-1.16
2019-02-22T03:42:15.921Z,-1.15
2019-02-22T03:42:47.281Z,-1.15
2019-02-22T03:43:18.600Z,-1.18
2019-02-22T03:43:50.037Z,-1.19
2019-02-22T03:44:21.390Z,-1.18
2019-02-22T03:44:52.761Z,-1.18
2019-02-22T03:45:24.162Z,-1.18
2019-02-22T03:45:55.421Z,-1.19
2019-02-22T03:46:26.748Z,-1.19
2019-02-22T03:46:58.197Z,-1.20
2019-02-22T03:47:29.504Z,-1.21
2019-02-22T03:48:00.975Z,-1.22
2019-02-22T03:48:32.275Z,-1.24
2019-02-22T03:49:03.619Z,-1.26
2019-02-22T03:49:34.956Z,-1.27
2019-02-22T03:50:06.853Z,-1.28
2019-02-22T03:50:38.257Z,-1.31
2019-02-22T03:51:09.663Z,-1.31
2019-02-22T03:51:41.071Z,-1.31
2019-02-22T03:52:17.195Z,-1.31
2019-02-22T03:52:53.277Z,-1.30
2019-02-22T03:53:26.606Z,-1.30
2019-02-22T03:53:58.151Z,-1.32
2019-02-22T03:54:29.542Z,-1.33
2019-02-22T03:55:01.124Z,-1.34
2019-02-22T03:55:33.503Z,-1.35
2019-02-22T03:56:05.035Z,-1.35
2019-02-22T03:56:36.474Z,-1.33
2019-02-22T03:57:07.918Z,-1.33
2019-02-22T03:57:39.298Z,-1.36
2019-02-22T03:58:10.659Z,-1.39
2019-02-22T03:58:42.127Z,-1.38
2019-02-22T03:59:13.687Z,-1.37
2019-02-22T03:59:45.083Z,-1.39
2019-02-22T04:00:16.553Z,-1.38
2019-02-22T04:00:47.931Z,-1.39
2019-02-22T04:01:19.313Z,-1.39
2019-02-22T04:01:50.761Z,-1.39
2019-02-22T04:02:22.317Z,-1.39
2019-02-22T04:02:53.800Z,-1.40
2019-02-22T04:03:25.140Z,-1.41
2019-02-22T04:03:56.622Z,-1.43
2019-02-22T04:04:27.938Z,-1.46
2019-02-22T04:04:59.304Z,-1.47
2019-02-22T04:05:30.549Z,-1.47
2019-02-22T04:06:01.858Z,-1.47
2019-02-22T04:06:33.150Z,-1.46
2019-02-22T04:07:04.636Z,-1.47
2019-02-22T04:07:35.934Z,-1.47
2019-02-22T04:08:07.482Z,-1.48
2019-02-22T04:08:38.793Z,-1.48
2019-02-22T04:09:10.229Z,-1.48
2019-02-22T04:09:41.737Z,-1.49
2019-02-22T04:10:13.503Z,-1.50
2019-02-22T04:10:44.825Z,-1.50
2019-02-22T04:11:16.455Z,-1.49
2019-02-22T04:11:47.657Z,-1.52
2019-02-22T04:12:19.064Z,-1.54
2019-02-22T04:12:50.420Z,-1.55
2019-02-22T04:13:21.772Z,-1.56
2019-02-22T04:13:53.132Z,-1.55
2019-02-22T04:14:24.573Z,-1.54
2019-02-22T04:14:55.892Z,-1.54
2019-02-22T04:15:27.321Z,-1.55
2019-02-22T04:15:58.667Z,-1.57
2019-02-22T04:16:30.052Z,-1.58
2019-02-22T04:17:01.399Z,-1.60
2019-02-22T04:17:32.719Z,-1.60
2019-02-22T04:18:04.014Z,-1.59
2019-02-22T04:18:35.269Z,-1.57
2019-02-22T04:19:06.754Z,-1.57
2019-02-22T04:19:38.188Z,-1.60
2019-02-22T04:20:09.557Z,-1.61
2019-02-22T04:20:40.959Z,-1.59
2019-02-22T04:21:12.617Z,-1.59
2019-02-22T04:21:44.029Z,-1.59
2019-02-22T04:22:15.755Z,-1.60
2019-02-22T04:22:47.112Z,-1.60
2019-02-22T04:23:18.562Z,-1.60
2019-02-22T04:23:49.851Z,-1.59
2019-02-22T04:24:22.117Z,-1.62
2019-02-22T04:24:53.550Z,-1.63
2019-02-22T04:25:25.017Z,-1.63
2019-02-22T04:25:56.548Z,-1.61
2019-02-22T04:26:28.190Z,-1.61
2019-02-22T04:26:59.556Z,-1.62
2019-02-22T04:27:30.814Z,-1.59
2019-02-22T04:28:02.179Z,-1.60
2019-02-22T04:28:33.661Z,-1.59
2019-02-22T04:29:05.347Z,-1.61
2019-02-22T04:29:36.737Z,-1.62
2019-02-22T04:30:09.178Z,-1.64
2019-02-22T04:30:40.526Z,-1.62
2019-02-22T04:31:11.947Z,-1.62
2019-02-22T04:31:43.184Z,-1.64
2019-02-22T04:32:14.612Z,-1.63
2019-02-22T04:32:45.953Z,-1.65
2019-02-22T04:33:17.342Z,-1.67
2019-02-22T04:33:48.836Z,-1.67
2019-02-22T04:34:20.315Z,-1.67
2019-02-22T04:34:51.681Z,-1.68
2019-02-22T04:35:23.085Z,-1.68
2019-02-22T04:35:54.382Z,-1.69
2019-02-22T04:36:26.747Z,-1.70
2019-02-22T04:36:58.072Z,-1.71
2019-02-22T04:37:29.506Z,-1.74
2019-02-22T04:38:00.917Z,-1.76
2019-02-22T04:38:32.287Z,-1.76
2019-02-22T04:39:05.226Z,-1.77
2019-02-22T04:39:36.800Z,-1.77
2019-02-22T04:40:08.113Z,-1.77
2019-02-22T04:40:39.448Z,-1.78
2019-02-22T04:41:10.954Z,-1.79
2019-02-22T04:41:42.341Z,-1.77
2019-02-22T04:42:13.792Z,-1.75
2019-02-22T04:42:45.189Z,-1.76
2019-02-22T04:43:16.641Z,-1.78
2019-02-22T04:43:48.223Z,-1.78
2019-02-22T04:44:19.639Z,-1.77
2019-02-22T04:44:51.085Z,-1.77
2019-02-22T04:45:22.560Z,-1.78
2019-02-22T04:45:54.031Z,-1.77
2019-02-22T04:46:25.501Z,-1.77
2019-02-22T04:46:57.009Z,-1.77
2019-02-22T04:47:28.439Z,-1.77
2019-02-22T04:47:59.769Z,-1.78
2019-02-22T04:48:31.241Z,-1.78
2019-02-22T04:49:02.582Z,-1.78
2019-02-22T04:49:34.122Z,-1.79
2019-02-22T04:50:06.436Z,-1.79
2019-02-22T04:50:37.770Z,-1.79
2019-02-22T04:51:09.094Z,-1.81
2019-02-22T04:51:40.684Z,-1.82
2019-02-22T04:52:12.033Z,-1.83
2019-02-22T04:52:43.519Z,-1.83
2019-02-22T04:53:14.774Z,-1.85
2019-02-22T04:53:47.270Z,-1.86
2019-02-22T04:54:18.539Z,-1.86
2019-02-22T04:54:50.059Z,-1.97
2019-02-22T04:55:21.277Z,-1.97
2019-02-22T04:55:52.591Z,-1.88
2019-02-22T04:56:23.909Z,-1.90
2019-02-22T04:56:55.227Z,-1.89
2019-02-22T04:57:26.610Z,-1.89
2019-02-22T04:57:57.922Z,-1.88
2019-02-22T04:58:29.442Z,-1.88
2019-02-22T04:59:00.999Z,-1.88
2019-02-22T04:59:32.595Z,-1.90
2019-02-22T05:00:04.039Z,-1.89
2019-02-22T05:00:35.484Z,-1.90
2019-02-22T05:01:06.962Z,-1.90
2019-02-22T05:01:38.377Z,-1.91
2019-02-22T05:02:09.743Z,-1.89
2019-02-22T05:02:41.154Z,-1.90
2019-02-22T05:03:12.345Z,-1.90
2019-02-22T05:03:43.844Z,-1.91
2019-02-22T05:04:15.247Z,-1.92
2019-02-22T05:04:46.799Z,-1.95
2019-02-22T05:05:18.165Z,-1.95
2019-02-22T05:05:50.471Z,-1.93
2019-02-22T05:06:21.747Z,-1.93
2019-02-22T05:06:54.027Z,-1.93
2019-02-22T05:07:25.371Z,-1.94
2019-02-22T05:07:56.805Z,-1.94
2019-02-22T05:08:28.273Z,-1.95
2019-02-22T05:08:59.558Z,-1.96
2019-02-22T05:09:31.108Z,-1.97
2019-02-22T05:10:02.810Z,-1.98
2019-02-22T05:10:34.302Z,-1.98
2019-02-22T05:11:05.761Z,-1.99
2019-02-22T05:11:37.173Z,-1.98
2019-02-22T05:12:11.219Z,-1.98
2019-02-22T05:12:41.832Z,-1.99
2019-02-22T05:13:13.234Z,-2.03
2019-02-22T05:13:45.628Z,-2.01
2019-02-22T05:14:16.853Z,-2.01
2019-02-22T05:14:48.358Z,-2.01
2019-02-22T05:15:19.616Z,-2.00
2019-02-22T05:15:51.027Z,-2.01
2019-02-22T05:16:22.328Z,-2.01
2019-02-22T05:16:53.676Z,-2.01
2019-02-22T05:17:25.133Z,-2.02
2019-02-22T05:17:56.416Z,-2.03
2019-02-22T05:18:27.719Z,-2.03
2019-02-22T05:18:59.049Z,-2.03
2019-02-22T05:19:30.311Z,-2.03
2019-02-22T05:20:01.905Z,-2.01
2019-02-22T05:20:33.333Z,-2.02
2019-02-22T05:21:04.826Z,-2.02
2019-02-22T05:21:36.237Z,-2.01
2019-02-22T05:22:07.533Z,-2.03
2019-02-22T05:22:39.020Z,-2.03
2019-02-22T05:23:10.405Z,-2.04
2019-02-22T05:23:41.876Z,-2.05
2019-02-22T05:24:13.615Z,-2.07
2019-02-22T05:24:45.050Z,-2.08
2019-02-22T05:25:16.516Z,-2.10
2019-02-22T05:25:48.049Z,-2.10
2019-02-22T05:26:19.514Z,-2.09
2019-02-22T05:26:50.992Z,-2.10
2019-02-22T05:27:22.503Z,-2.10
2019-02-22T05:27:54.990Z,-2.08
2019-02-22T05:28:26.361Z,-2.08
2019-02-22T05:28:57.763Z,-2.09
2019-02-22T05:29:29.164Z,-2.08
2019-02-22T05:30:00.544Z,-2.08
2019-02-22T05:30:31.887Z,-2.11
2019-02-22T05:31:03.231Z,-2.12
2019-02-22T05:31:34.543Z,-2.12
2019-02-22T05:32:05.933Z,-2.13
2019-02-22T05:32:37.459Z,-2.14
2019-02-22T05:33:09.871Z,-2.14
2019-02-22T05:33:41.123Z,-2.17
2019-02-22T05:34:12.593Z,-2.17
2019-02-22T05:34:43.959Z,-2.17
2019-02-22T05:35:15.660Z,-2.18
2019-02-22T05:35:46.856Z,-2.19
2019-02-22T05:36:18.251Z,-2.18
2019-02-22T05:36:49.514Z,-2.17
2019-02-22T05:37:21.591Z,-2.15
2019-02-22T05:37:52.988Z,-2.16
2019-02-22T05:38:24.511Z,-2.18
2019-02-22T05:38:55.869Z,-2.21
2019-02-22T05:39:27.411Z,-2.23
2019-02-22T05:39:58.923Z,-2.22
2019-02-22T05:40:30.490Z,-2.23
2019-02-22T05:41:01.869Z,-2.24
2019-02-22T05:41:33.418Z,-2.29
2019-02-22T05:42:04.837Z,-2.31
2019-02-22T05:42:36.157Z,-2.29
2019-02-22T05:43:07.484Z,-2.29
2019-02-22T05:43:38.837Z,-2.30
2019-02-22T05:44:10.128Z,-2.30
2019-02-22T05:44:41.452Z,-2.29
2019-02-22T05:45:12.925Z,-2.31
2019-02-22T05:45:44.207Z,-2.30
2019-02-22T05:46:15.726Z,-2.33
2019-02-22T05:46:47.017Z,-2.34
2019-02-22T05:47:18.336Z,-2.36
2019-02-22T05:47:49.747Z,-2.37
2019-02-22T05:48:22.161Z,-2.39
2019-02-22T05:48:53.472Z,-2.38
2019-02-22T05:49:24.899Z,-2.38
2019-02-22T05:49:56.227Z,-2.38
2019-02-22T05:50:27.499Z,-2.37
2019-02-22T05:50:58.847Z,-2.38
2019-02-22T05:51:30.248Z,-2.39
2019-02-22T05:52:01.522Z,-2.38
2019-02-22T05:52:32.937Z,-2.39
2019-02-22T05:53:04.514Z,-2.41
2019-02-22T05:53:36.072Z,-2.44
2019-02-22T05:54:07.508Z,-2.45
2019-02-22T05:54:38.892Z,-2.44
2019-02-22T05:55:10.421Z,-2.44
2019-02-22T05:55:44.139Z,-2.44
2019-02-22T05:56:15.171Z,-2.46
2019-02-22T05:56:46.707Z,-2.48
2019-02-22T05:57:18.148Z,-2.46
2019-02-22T05:57:49.645Z,-2.48
2019-02-22T05:58:21.061Z,-2.46
2019-02-22T05:58:52.427Z,-2.46
2019-02-22T05:59:23.844Z,-2.47
2019-02-22T05:59:55.264Z,-2.47
2019-02-22T06:00:26.780Z,-2.48
2019-02-22T06:00:58.003Z,-2.47
2019-02-22T06:01:29.445Z,-2.48
2019-02-22T06:02:00.769Z,-2.48
2019-02-22T06:02:34.062Z,-2.49
2019-02-22T06:03:06.047Z,-2.49
2019-02-22T06:03:37.538Z,-2.48
2019-02-22T06:04:08.935Z,-2.49
2019-02-22T06:04:40.430Z,-2.50
2019-02-22T06:05:11.780Z,-2.48
2019-02-22T06:05:43.121Z,-2.48
2019-02-22T06:06:14.446Z,-2.47
2019-02-22T06:06:45.922Z,-2.47
2019-02-22T06:07:17.281Z,-2.44
2019-02-22T06:07:48.794Z,-2.44
2019-02-22T06:08:20.224Z,-2.44
2019-02-22T06:08:51.586Z,-2.45
2019-02-22T06:09:23.088Z,-2.46
2019-02-22T06:09:54.500Z,-2.46
2019-02-22T06:10:26.960Z,-2.48
2019-02-22T06:10:58.443Z,-2.48
2019-02-22T06:11:29.938Z,-2.48
2019-02-22T06:12:01.188Z,-2.47
2019-02-22T06:12:34.894Z,-2.48
2019-02-22T06:13:06.546Z,-2.49
2019-02-22T06:13:37.927Z,-2.48
2019-02-22T06:14:09.445Z,-2.46
2019-02-22T06:14:40.967Z,-2.45
2019-02-22T06:15:12.243Z,-2.44
2019-02-22T06:15:43.563Z,-2.46
2019-02-22T06:16:14.842Z,-2.48
2019-02-22T06:16:46.323Z,-2.49
2019-02-22T06:17:17.675Z,-2.49
2019-02-22T06:17:49.041Z,-2.49
2019-02-22T06:18:23.036Z,-2.49
2019-02-22T06:18:53.685Z,-2.50
2019-02-22T06:19:26.156Z,-2.50
2019-02-22T06:19:57.547Z,-2.51
2019-02-22T06:20:29.095Z,-2.50
2019-02-22T06:21:00.559Z,-2.50
2019-02-22T06:21:31.861Z,-2.49
2019-02-22T06:22:04.164Z,-2.49
2019-02-22T06:22:35.620Z,-2.51
2019-02-22T06:23:07.028Z,-2.53
2019-02-22T06:23:38.540Z,-2.54
2019-02-22T06:24:09.919Z,-2.53
2019-02-22T06:24:41.456Z,-2.54
2019-02-22T06:25:12.891Z,-2.55
2019-02-22T06:25:44.417Z,-2.57
2019-02-22T06:26:15.716Z,-2.58
2019-02-22T06:26:47.144Z,-2.58
2019-02-22T06:27:18.609Z,-2.59
2019-02-22T06:27:50.023Z,-2.60
2019-02-22T06:28:21.294Z,-2.61
2019-02-22T06:28:52.623Z,-2.60
2019-02-22T06:29:24.153Z,-2.59
2019-02-22T06:29:55.638Z,-2.62
2019-02-22T06:30:27.111Z,-2.62
2019-02-22T06:30:58.325Z,-2.61
2019-02-22T06:31:29.610Z,-2.58
2019-02-22T06:32:00.935Z,-2.56
2019-02-22T06:32:32.417Z,-2.55
2019-02-22T06:33:03.702Z,-2.57
2019-02-22T06:33:35.155Z,-2.57
2019-02-22T06:34:06.569Z,-2.57
2019-02-22T06:34:37.903Z,-2.56
2019-02-22T06:35:10.411Z,-2.55
2019-02-22T06:35:41.790Z,-2.55
2019-02-22T06:36:13.337Z,-2.54
2019-02-22T06:36:44.766Z,-2.54
2019-02-22T06:37:16.163Z,-2.57
2019-02-22T06:37:47.678Z,-2.55
2019-02-22T06:38:19.089Z,-2.54
2019-02-22T06:38:50.581Z,-2.51
2019-02-22T06:39:21.991Z,-2.51
2019-02-22T06:39:53.540Z,-2.52
2019-02-22T06:40:24.905Z,-2.51
2019-02-22T06:40:56.313Z,-2.53
2019-02-22T06:41:28.751Z,-2.52
2019-02-22T06:42:00.259Z,-2.53
2019-02-22T06:42:32.578Z,-2.53
2019-02-22T06:43:04.832Z,-2.54
2019-02-22T06:43:36.349Z,-2.54
2019-02-22T06:44:07.709Z,-2.54
2019-02-22T06:44:39.122Z,-2.54
2019-02-22T06:45:10.435Z,-2.53
2019-02-22T06:45:41.823Z,-2.52
2019-02-22T06:46:13.681Z,-2.49
2019-02-22T06:46:44.960Z,-2.47
2019-02-22T06:47:16.265Z,-2.48
2019-02-22T06:47:48.518Z,-2.49
2019-02-22T06:48:19.939Z,-2.50
2019-02-22T06:48:51.327Z,-2.50
2019-02-22T06:49:22.613Z,-2.50
2019-02-22T06:49:54.129Z,-2.49
2019-02-22T06:50:33.833Z,-2.50